x

Santa Maria - 21nm Nw Of Point Arguello, Ca (46011) Wave Buoy

1:50pm - Thu 30th Jun 2016 All times are PDT. -7 hours from GMT.

  • Sig Wave height 7.9ft
  • Swell Direction
  • Peak Period 11s
  • Average Period 7s
  • Wind
    13mph, 16mph gusts
  • Sea Temp 57°f
  • Air Temp 55°f
  • Sea Pressure 1014.7mb
  • Santa Maria - 21nm Nw Of Point Arguello, Ca
  • Santa Maria - 21nm Nw Of Point Arguello, Ca

More Historic Weather Station data

Upgrade to MSW Pro to gain access to the past 30 days of data for over 8000 Wavebouys and Weather Stations around the globe.

Join Pro

Comparision Forecast

View Surf forecast
   
Thu 06/30 1:50pm 8ft 11s 7s 13 16 mph 1014.7mb 57f 55f
12:50pm 8ft 10s 7s 16 18 mph 1015mb 57f 54f
11:50am 7.5ft 10s 7s 16 20 mph 1015.1mb 56f 54f
10:50am 8ft 11s 7s 16 20 mph 1015.1mb 56f 53f
9:50am 8ft 10s 7s 18 22 mph 1014.7mb 56f 53f
8:50am 8ft 8s 7s 20 25 mph 1014.5mb 56f 53f
7:50am 7ft 8s 6s 18 25 mph 1014.1mb 56f 53f
6:50am 8ft 8s 7s 18 22 mph 1013.8mb 56f 53f
5:50am 8ft 9s 7s 20 25 mph 1013.6mb 56f 53f
4:50am 9ft 8s 7s 20 25 mph 1013.4mb 55f 53f
3:50am 9ft 10s 7s 20 25 mph 1013.4mb 55f 53f
2:50am 9ft 8s 7s 20 27 mph 1013.3mb 55f 53f
1:50am 9.5ft 8s 7s 20 25 mph 1013.6mb 55f 53f
12:50am 9.5ft 10s 7s 22 25 mph 1014mb 55f 53f
Wed 06/29 11:50pm 9.5ft 9s 7s 20 25 mph 1014.3mb 55f 53f
10:50pm 8.5ft 8s 7s 20 25 mph 1014.6mb 55f 53f
9:50pm 9.5ft 10s 7s 20 25 mph 1014.4mb 56f 53f
8:50pm 9.5ft 9s 7s 22 27 mph 1014mb 56f 53f
7:50pm 9ft 8s 6s 25 29 mph 1013.8mb 56f 54f
6:50pm 9ft 8s 7s 25 29 mph 1013.6mb 56f 54f
5:50pm 9ft 9s 6s 25 29 mph 1013.6mb 56f 54f
4:50pm 9ft 9s 7s 25 29 mph 1013.7mb 56f 54f
3:50pm 8.5ft 8s 6s 25 29 mph 1014.3mb 56f 54f
2:50pm 8ft 9s 6s 22 27 mph 1014.7mb 56f 54f
1:50pm 8ft 9s 6s 25 29 mph 1014.9mb 56f 54f
12:50pm 8ft 9s 6s 22 27 mph 1015.3mb 56f 54f
11:50am 8ft 9s 7s 20 22 mph 1015.7mb 56f 53f
10:50am 8ft 9s 7s 20 22 mph 1015.4mb 55f 53f
9:50am 7ft 8s 7s 18 22 mph 1015.5mb 55f 52f
8:50am 7ft 9s 7s 18 20 mph 1015.3mb 55f 52f
7:50am 7ft 9s 7s 16 18 mph 1014.9mb 55f 52f
6:50am 7ft 9s 7s 16 18 mph 1014.4mb 55f 52f
5:50am 7ft 9s 7s 16 20 mph 1014mb 55f 52f
4:50am 6ft 8s 6s 16 18 mph 1013.5mb 55f 54f
3:50am 6ft 9s 6s 16 20 mph 1013.5mb 55f 53f
2:50am 6.5ft 9s 6s 11 13 mph 1013.6mb 55f 52f
12:50am 6.5ft 9s 6s 13 18 mph 1014.2mb 55f 53f
Tue 06/28 11:50pm 6ft 8s 6s 18 20 mph 1014.2mb 55f 53f
10:50pm 6ft 9s 6s 18 22 mph 1014.4mb 55f 53f
9:50pm 6.5ft 9s 6s 18 20 mph 1014.4mb 55f 53f
8:50pm 6.5ft 10s 6s 18 20 mph 1014.4mb 56f 53f
7:50pm 6.5ft 9s 7s 16 20 mph 1014.1mb 56f 53f
6:50pm 6ft 8s 6s 16 18 mph 1014.1mb 56f 54f
5:50pm 6ft 10s 7s 13 18 mph 1014.5mb 56f 54f
4:50pm 7ft 8s 7s 11 16 mph 1014.8mb 56f 55f
3:50pm 6ft 8s 6s 9 13 mph 1015.4mb 56f 55f
2:50pm 7ft 9s 7s 11 13 mph 1015.7mb 56f 55f
1:50pm 6.5ft 9s 7s 13 16 mph 1015.8mb 56f 54f
12:50pm 7.5ft 9s 7s 13 16 mph 1016.1mb 55f 54f
11:50am 6.5ft 8s 7s 11 13 mph 1016.2mb 55f 54f
10:50am 7ft 8s 6s 11 16 mph 1016mb 55f 54f
9:50am 6.5ft 9s 6s 11 13 mph 1015.8mb 55f 55f
8:50am 7ft 9s 7s 9 11 mph 1015.8mb 55f 55f
7:50am 6.5ft 9s 6s 7
mph
1015.4mb 55f 55f
6:50am 6ft 8s 6s 4 7 mph 1014.9mb 55f 55f
5:50am 6ft 8s 6s 4 7 mph 1014.3mb 55f 55f
4:50am 6ft 8s 6s 4 7 mph 1013.9mb 55f 55f
3:50am 6.5ft 8s 7s 7 9 mph 1013.3mb 55f 55f
2:50am 7.5ft 8s 7s 9 11 mph 1013.3mb 55f 55f
1:50am 7ft 9s 7s 11 13 mph 1012.9mb 55f 55f
12:50am 7ft 9s 7s 11 13 mph 1013.1mb 55f 55f
Mon 06/27 11:50pm 7.5ft 9s 7s 7 9 mph 1013.4mb 55f 56f
10:50pm 8.5ft 9s 7s 7
mph
1013.7mb 55f 55f
9:50pm 7.5ft 8s 7s 4 7 mph 1013.7mb 55f 55f
8:50pm 7.5ft 7s 7s 2 4 mph 1013.8mb 55f 55f
7:50pm 8ft 8s 7s 4 7 mph 1013.7mb 55f 56f
6:50pm 8ft 8s 7s 2 4 mph 1013.7mb 55f 56f
5:50pm 8ft 8s 6s 7 9 mph 1013.7mb 55f 56f
4:50pm 8ft 8s 6s 11 13 mph 1013.7mb 54f 55f
3:50pm 9ft 8s 6s 11 16 mph 1014mb 54f 55f
2:50pm 8.5ft 8s 6s 25 29 mph 1012.9mb 54f 55f
1:50pm 8ft 8s 6s 25 29 mph 1013.4mb 54f 54f
12:50pm 8ft 9s 6s 25 29 mph 1013.8mb 54f 54f
11:50am 8.5ft 8s 6s 22 27 mph 1014.2mb 54f 54f
10:50am 8.5ft 9s 7s 20 25 mph 1014.4mb 54f 55f
9:50am 8ft 8s 7s 20 25 mph 1014.4mb 54f 54f
8:50am 8.5ft 8s 7s 20 25 mph 1014.6mb 54f 55f
7:50am 8ft 8s 7s 20 25 mph 1014.2mb 54f 54f
6:50am 8ft 8s 6s 20 25 mph 1013.8mb 54f 54f
5:50am 7.5ft 8s 6s 20 22 mph 1013.7mb 54f 54f
4:50am 8ft 8s 7s 20 22 mph 1013.3mb 54f 55f
3:50am 8ft 7s 7s 20 25 mph 1013.3mb 54f 55f
2:50am 8ft 8s 7s 18 22 mph 1013.3mb 54f 56f
1:50am 8ft 8s 7s 18 22 mph 1013.2mb 54f 56f
12:50am 9ft 8s 7s 18 20 mph 1013.4mb 54f 56f
Sun 06/26 11:50pm 9ft 8s 7s 16 18 mph 1013.7mb 54f 56f
10:50pm 8.5ft 9s 7s 16 18 mph 1013.7mb 54f 56f